American Integrity — WDD2875 — position and weather

sailwx.info

Track history (hours):
 
Tides and Currents Weather Stations Pressure Air Temp Water Temp Dewpoint Dewpoint Depression Visibility Wind Speed Wind Dir Waves Ship Positions

American Integrity

Owner: American Steamship Company, Williamsville, NY. More information available from US FCC via Universal Licensing System and Coast Guard Vessel Documentation Center.

Last reported at 2016-May-31 09:05 UTC. Time now 2016-May-31 10:03 UTC.
Position N 46°55' W 085°26'.

; draft 8 m.

Type: Cargo ship. MMSI: 367120990.

Date/timePositionNaut miles runAvg speedWind from/ knotsBaromVisibWave heightAir tempDewpointWater temp
2016-May-31 09:05N 46°55' W 085°26'3411.8
2016-May-31 06:15N 46°36' W 084°46'24 4.7
2016-May-31 01:13N 46°26' W 084°15'31 8.6
2016-May-30 21:33N 45°58' W 083°53'8611.3
2016-May-30 14:00N 45°00' W 082°24'   270 / 171013.210.8 12.2
2016-May-28 02:00N 45°06' W 082°54'6411.9 130 / 161013.8 1.1 11.6
2016-May-27 20:33N 45°56' W 083°53'11 9.5
2016-May-27 19:26N 46°05' W 084°01'22 4.2
2016-May-27 14:19N 46°24' W 084°15'0 0.0
2016-May-27 12:33N 46°24' W 084°15'0 0.0
2016-May-27 11:31N 46°24' W 084°15'0 0.0
2016-May-27 07:33N 46°24' W 084°15'152 8.2
2016-May-26 13:00N 47°30' W 087°36'11811.8 1008.8 0.5 6.6
2016-May-26 03:00N 47°18' W 090°30'4011.2 070 / 301011.1 5.4 5.5
2016-May-25 23:24N 47°01' W 091°24'1011.5
2016-May-25 22:33N 46°57' W 091°36'1111.4
2016-May-25 21:34N 46°52' W 091°51'1110.6
2016-May-25 20:33N 46°47' W 092°05'3 2.7
2016-May-25 19:34N 46°45' W 092°07'0 0.0
2016-May-25 18:33N 46°45' W 092°07'0 0.0
2016-May-25 17:34N 46°45' W 092°07'0 0.0
2016-May-25 16:34N 46°45' W 092°07'0 0.0
2016-May-25 15:34N 46°45' W 092°07'0 0.0
2016-May-25 14:33N 46°45' W 092°07'0 0.0
2016-May-25 13:33N 46°45' W 092°07'0 0.0
2016-May-25 12:33N 46°45' W 092°07'0 0.0
2016-May-25 11:33N 46°45' W 092°07'0 0.0
2016-May-25 10:33N 46°45' W 092°07'0 0.0
2016-May-25 09:33N 46°45' W 092°07'0 0.0
2016-May-25 08:33N 46°45' W 092°07'0 0.0
2016-May-25 07:34N 46°45' W 092°07'0 0.0
2016-May-25 06:34N 46°45' W 092°07'0 0.0
2016-May-25 05:33N 46°45' W 092°07'0 0.0
2016-May-25 04:34N 46°45' W 092°07'0 0.0
2016-May-25 03:34N 46°45' W 092°07'0 0.0
2016-May-25 02:33N 46°45' W 092°07'0 0.0
2016-May-25 01:34N 46°45' W 092°07'0 0.0
2016-May-25 00:33N 46°45' W 092°07'0 0.0
2016-May-24 23:33N 46°45' W 092°07'0 0.0
2016-May-24 22:33N 46°45' W 092°07'0 0.0
2016-May-24 21:33N 46°45' W 092°07'0 0.0
2016-May-24 20:33N 46°45' W 092°07'0 0.0
2016-May-24 19:33N 46°45' W 092°07'0 0.0
2016-May-24 18:33N 46°45' W 092°07'0 0.0
2016-May-24 17:34N 46°45' W 092°07'0 0.0
2016-May-24 16:33N 46°45' W 092°07'1 0.8
2016-May-24 15:34N 46°45' W 092°06'1 0.6
2016-May-24 14:33N 46°46' W 092°06'0 0.0
2016-May-24 13:34N 46°46' W 092°06'2 1.7
2016-May-24 12:33N 46°44' W 092°05'5 5.5
2016-May-24 11:34N 46°44' W 091°57'1312.6
2016-May-24 10:33N 46°53' W 091°43'1312.9
2016-May-24 09:33N 46°58' W 091°26'11413.3
2016-May-24 01:00N 47°24' W 088°42'12511.9 220 / 71007.1 5.4 0.513.8
2016-May-23 14:32N 46°59' W 085°42'1313.0
2016-May-23 13:33N 46°55' W 085°24'1312.9
2016-May-23 12:31N 46°50' W 085°06'1212.2
2016-May-23 11:33N 46°43' W 084°52'1312.8
2016-May-23 10:33N 46°33' W 084°41'1010.3
2016-May-23 09:33N 46°28' W 084°28'7 3.7
2016-May-23 07:33N 46°29' W 084°18'8 7.9
2016-May-23 06:33N 46°22' W 084°12'8 7.2
2016-May-23 05:29N 46°15' W 084°06'8 9.0
2016-May-23 04:33N 46°08' W 084°01'10 9.9
2016-May-23 03:33N 45°59' W 083°53'1212.4
2016-May-23 02:33N 45°48' W 083°46'13510.8
2016-May-22 14:00N 43°48' W 082°18'   360 / 181016.210.8 7.2
Track history (hours):
 
Tides and Currents Weather Stations Pressure Air Temp Water Temp Dewpoint Dewpoint Depression Visibility Wind Speed Wind Dir Waves Ship Positions

American Integrity

Owner: American Steamship Company, Williamsville, NY. More information available from US FCC via Universal Licensing System and Coast Guard Vessel Documentation Center.

Last reported at 2016-May-31 09:05 UTC. Time now 2016-May-31 10:03 UTC.
Position N 46°55' W 085°26'.

; draft 8 m.

Type: Cargo ship. MMSI: 367120990.

Date/timePositionNaut miles runAvg speedWind from/ knotsBaromVisibWave heightAir tempDewpointWater temp
2016-May-31 09:05N 46°55' W 085°26'3411.8
2016-May-31 06:15N 46°36' W 084°46'24 4.7
2016-May-31 01:13N 46°26' W 084°15'31 8.6
2016-May-30 21:33N 45°58' W 083°53'8611.3
2016-May-30 14:00N 45°00' W 082°24'   270 / 171013.210.8 12.2
2016-May-28 02:00N 45°06' W 082°54'6411.9 130 / 161013.8 1.1 11.6
2016-May-27 20:33N 45°56' W 083°53'11 9.5
2016-May-27 19:26N 46°05' W 084°01'22 4.2
2016-May-27 14:19N 46°24' W 084°15'0 0.0
2016-May-27 12:33N 46°24' W 084°15'0 0.0
2016-May-27 11:31N 46°24' W 084°15'0 0.0
2016-May-27 07:33N 46°24' W 084°15'152 8.2
2016-May-26 13:00N 47°30' W 087°36'11811.8 1008.8 0.5 6.6
2016-May-26 03:00N 47°18' W 090°30'4011.2 070 / 301011.1 5.4 5.5
2016-May-25 23:24N 47°01' W 091°24'1011.5
2016-May-25 22:33N 46°57' W 091°36'1111.4
2016-May-25 21:34N 46°52' W 091°51'1110.6
2016-May-25 20:33N 46°47' W 092°05'3 2.7
2016-May-25 19:34N 46°45' W 092°07'0 0.0
2016-May-25 18:33N 46°45' W 092°07'0 0.0
2016-May-25 17:34N 46°45' W 092°07'0 0.0
2016-May-25 16:34N 46°45' W 092°07'0 0.0
2016-May-25 15:34N 46°45' W 092°07'0 0.0
2016-May-25 14:33N 46°45' W 092°07'0 0.0
2016-May-25 13:33N 46°45' W 092°07'0 0.0
2016-May-25 12:33N 46°45' W 092°07'0 0.0
2016-May-25 11:33N 46°45' W 092°07'0 0.0
2016-May-25 10:33N 46°45' W 092°07'0 0.0
2016-May-25 09:33N 46°45' W 092°07'0 0.0
2016-May-25 08:33N 46°45' W 092°07'0 0.0
2016-May-25 07:34N 46°45' W 092°07'0 0.0
2016-May-25 06:34N 46°45' W 092°07'0 0.0
2016-May-25 05:33N 46°45' W 092°07'0 0.0
2016-May-25 04:34N 46°45' W 092°07'0 0.0
2016-May-25 03:34N 46°45' W 092°07'0 0.0
2016-May-25 02:33N 46°45' W 092°07'0 0.0
2016-May-25 01:34N 46°45' W 092°07'0 0.0
2016-May-25 00:33N 46°45' W 092°07'0 0.0
2016-May-24 23:33N 46°45' W 092°07'0 0.0
2016-May-24 22:33N 46°45' W 092°07'0 0.0
2016-May-24 21:33N 46°45' W 092°07'0 0.0
2016-May-24 20:33N 46°45' W 092°07'0 0.0
2016-May-24 19:33N 46°45' W 092°07'0 0.0
2016-May-24 18:33N 46°45' W 092°07'0 0.0
2016-May-24 17:34N 46°45' W 092°07'0 0.0
2016-May-24 16:33N 46°45' W 092°07'1 0.8
2016-May-24 15:34N 46°45' W 092°06'1 0.6
2016-May-24 14:33N 46°46' W 092°06'0 0.0
2016-May-24 13:34N 46°46' W 092°06'2 1.7
2016-May-24 12:33N 46°44' W 092°05'5 5.5
2016-May-24 11:34N 46°44' W 091°57'1312.6
2016-May-24 10:33N 46°53' W 091°43'1312.9
2016-May-24 09:33N 46°58' W 091°26'11413.3
2016-May-24 01:00N 47°24' W 088°42'12511.9 220 / 71007.1 5.4 0.513.8
2016-May-23 14:32N 46°59' W 085°42'1313.0
2016-May-23 13:33N 46°55' W 085°24'1312.9
2016-May-23 12:31N 46°50' W 085°06'1212.2
2016-May-23 11:33N 46°43' W 084°52'1312.8
2016-May-23 10:33N 46°33' W 084°41'1010.3
2016-May-23 09:33N 46°28' W 084°28'7 3.7
2016-May-23 07:33N 46°29' W 084°18'8 7.9
2016-May-23 06:33N 46°22' W 084°12'8 7.2
2016-May-23 05:29N 46°15' W 084°06'8 9.0
2016-May-23 04:33N 46°08' W 084°01'10 9.9
2016-May-23 03:33N 45°59' W 083°53'1212.4
2016-May-23 02:33N 45°48' W 083°46'13510.8
2016-May-22 14:00N 43°48' W 082°18'   360 / 181016.210.8 7.2

Dump ship's entire track history